createdAt,value
2023-01-07T00:01:24.855Z,39.88
2023-01-07T00:03:53.111Z,32.15
2023-01-07T00:06:28.158Z,31.55
2023-01-07T00:08:57.682Z,32.78
2023-01-07T00:11:32.937Z,33.22
2023-01-07T00:14:00.947Z,32.53
2023-01-07T00:16:29.596Z,28.88
2023-01-07T00:18:57.552Z,36.45
2023-01-07T00:21:25.526Z,29.90
2023-01-07T00:23:56.615Z,29.52
2023-01-07T00:26:24.455Z,24.67
2023-01-07T00:28:52.409Z,24.98
2023-01-07T00:31:20.830Z,24.33
2023-01-07T00:33:47.928Z,28.98
2023-01-07T00:36:14.715Z,29.15
2023-01-07T00:38:41.086Z,21.20
2023-01-07T00:41:07.554Z,20.13
2023-01-07T00:43:33.863Z,20.92
2023-01-07T00:46:00.174Z,18.60
2023-01-07T00:48:26.642Z,27.23
2023-01-07T00:50:53.312Z,19.75
2023-01-07T00:53:20.474Z,22.38
2023-01-07T00:55:51.550Z,18.17
2023-01-07T00:58:22.577Z,18.73
2023-01-07T01:00:48.951Z,18.48
2023-01-07T01:03:15.385Z,14.77
2023-01-07T01:05:41.979Z,17.42
2023-01-07T01:08:09.257Z,17.73
2023-01-07T01:10:35.612Z,17.40
2023-01-07T01:13:01.969Z,15.93
2023-01-07T01:15:28.316Z,17.38
2023-01-07T01:17:54.931Z,12.85
2023-01-07T01:20:21.935Z,13.05
2023-01-07T01:22:48.367Z,14.25
2023-01-07T01:25:14.960Z,16.88
2023-01-07T01:27:41.274Z,14.82
2023-01-07T01:30:08.219Z,12.68
2023-01-07T01:32:34.554Z,15.10
2023-01-07T01:35:00.837Z,11.90
2023-01-07T01:37:27.129Z,12.73
2023-01-07T01:39:53.416Z,12.93
2023-01-07T01:42:22.663Z,12.77
2023-01-07T01:44:54.433Z,12.55
2023-01-07T01:47:38.691Z,13.90
2023-01-07T01:50:10.119Z,13.07
2023-01-07T01:52:52.028Z,14.05
2023-01-07T01:55:23.620Z,16.23
2023-01-07T01:57:54.739Z,11.95
2023-01-07T02:00:21.336Z,15.75
2023-01-07T02:02:54.789Z,15.18
2023-01-07T02:05:21.388Z,15.68
2023-01-07T02:07:47.696Z,14.02
2023-01-07T02:10:20.142Z,18.20
2023-01-07T02:13:21.306Z,17.48
2023-01-07T02:15:59.655Z,14.85
2023-01-07T02:18:36.270Z,13.27
2023-01-07T02:21:21.194Z,14.85
2023-01-07T02:23:56.404Z,14.00
2023-01-07T02:26:34.853Z,16.77
2023-01-07T02:29:13.420Z,13.27
2023-01-07T02:32:14.168Z,14.60
2023-01-07T02:35:08.562Z,13.98
2023-01-07T02:38:01.330Z,13.55
2023-01-07T02:40:55.646Z,12.45
2023-01-07T02:43:34.120Z,13.25
2023-01-07T02:46:08.149Z,16.45
2023-01-07T02:48:36.290Z,16.75
2023-01-07T02:51:02.621Z,17.58
2023-01-07T02:53:29.927Z,13.60
2023-01-07T02:56:14.454Z,14.43
2023-01-07T02:58:58.882Z,15.40
2023-01-07T03:01:43.515Z,13.13
2023-01-07T03:04:18.788Z,13.52
2023-01-07T03:07:09.459Z,14.90
2023-01-07T03:09:49.337Z,11.15
2023-01-07T03:12:49.870Z,14.77
2023-01-07T03:15:29.118Z,14.98
2023-01-07T03:18:04.389Z,12.10
2023-01-07T03:20:33.698Z,13.00
2023-01-07T03:23:02.157Z,12.15
2023-01-07T03:25:30.918Z,11.95
2023-01-07T03:27:59.222Z,16.55
2023-01-07T03:30:27.852Z,11.80
2023-01-07T03:33:04.643Z,13.60
2023-01-07T03:35:34.038Z,16.88
2023-01-07T03:38:02.778Z,19.55
2023-01-07T03:40:31.194Z,11.98
2023-01-07T03:42:59.424Z,17.08
2023-01-07T03:45:27.883Z,13.02
2023-01-07T03:47:56.823Z,12.50
2023-01-07T03:50:23.524Z,13.07
2023-01-07T03:52:49.870Z,12.85
2023-01-07T03:55:17.166Z,14.88
2023-01-07T03:57:43.609Z,12.55
2023-01-07T04:00:11.776Z,14.18
2023-01-07T04:02:38.227Z,15.18
2023-01-07T04:05:04.908Z,15.25
2023-01-07T04:07:31.195Z,13.13
2023-01-07T04:09:57.605Z,13.75
2023-01-07T04:12:23.947Z,12.13
2023-01-07T04:14:50.399Z,13.75
2023-01-07T04:17:16.808Z,11.43
2023-01-07T04:19:43.196Z,10.05
2023-01-07T04:22:10.776Z,15.80
2023-01-07T04:24:37.093Z,13.05
2023-01-07T04:27:03.617Z,12.27
2023-01-07T04:29:30.627Z,11.23
2023-01-07T04:31:57.259Z,11.68
2023-01-07T04:34:23.861Z,11.07
2023-01-07T04:36:50.251Z,12.45
2023-01-07T04:39:16.825Z,13.45
2023-01-07T04:41:43.804Z,12.30
2023-01-07T04:44:10.324Z,9.35
2023-01-07T04:46:36.770Z,12.40
2023-01-07T04:49:03.264Z,12.57
2023-01-07T04:51:29.640Z,12.90
2023-01-07T04:53:56.006Z,12.65
2023-01-07T04:56:22.347Z,11.85
2023-01-07T04:58:48.725Z,14.02
2023-01-07T05:01:15.229Z,13.98
2023-01-07T05:03:41.719Z,13.10
2023-01-07T05:06:08.129Z,11.35
2023-01-07T05:08:34.745Z,15.40
2023-01-07T05:11:01.268Z,11.80
2023-01-07T05:13:27.726Z,14.38
2023-01-07T05:15:54.119Z,12.75
2023-01-07T05:18:20.452Z,10.70
2023-01-07T05:20:47.248Z,11.18
2023-01-07T05:23:13.721Z,13.68
2023-01-07T05:25:40.124Z,9.70
2023-01-07T05:28:06.512Z,15.38
2023-01-07T05:30:33.078Z,15.98
2023-01-07T05:32:59.437Z,9.38
2023-01-07T05:35:25.855Z,12.10
2023-01-07T05:37:52.180Z,11.98
2023-01-07T05:40:18.587Z,10.77
2023-01-07T05:42:46.083Z,13.60
2023-01-07T05:45:12.511Z,11.45
2023-01-07T05:47:38.918Z,13.10
2023-01-07T05:50:05.832Z,9.48
2023-01-07T05:52:32.322Z,10.45
2023-01-07T05:54:58.703Z,9.95
2023-01-07T05:57:25.117Z,9.98
2023-01-07T05:59:51.571Z,11.55
2023-01-07T06:02:17.993Z,9.73
2023-01-07T06:04:44.514Z,9.45
2023-01-07T06:07:10.943Z,8.18
2023-01-07T06:09:37.426Z,7.60
2023-01-07T06:12:03.969Z,9.73
2023-01-07T06:14:30.337Z,10.23
2023-01-07T06:16:56.721Z,8.13
2023-01-07T06:19:23.157Z,11.40
2023-01-07T06:21:49.943Z,8.20
2023-01-07T06:24:16.251Z,7.57
2023-01-07T06:26:42.680Z,7.60
2023-01-07T06:29:10.734Z,10.73
2023-01-07T06:31:37.268Z,6.95
2023-01-07T06:34:03.693Z,7.40
2023-01-07T06:36:30.348Z,7.97
2023-01-07T06:38:56.729Z,6.82
2023-01-07T06:41:23.121Z,8.63
2023-01-07T06:43:49.566Z,11.48
2023-01-07T06:46:16.272Z,8.50
2023-01-07T06:48:42.620Z,9.20
2023-01-07T06:51:08.956Z,9.20
2023-01-07T06:53:35.303Z,6.75
2023-01-07T06:56:01.655Z,7.60
2023-01-07T06:58:28.122Z,9.57
2023-01-07T07:00:54.517Z,7.82
2023-01-07T07:03:20.971Z,7.13
2023-01-07T07:05:48.249Z,5.85
2023-01-07T07:08:14.644Z,6.20
2023-01-07T07:10:41.074Z,6.72
2023-01-07T07:13:07.516Z,7.70
2023-01-07T07:15:33.895Z,5.60
2023-01-07T07:18:00.304Z,8.15
2023-01-07T07:20:26.655Z,6.93
2023-01-07T07:22:53.001Z,7.78
2023-01-07T07:25:19.644Z,6.40
2023-01-07T07:27:47.035Z,5.50
2023-01-07T07:30:14.876Z,6.68
2023-01-07T07:32:41.611Z,6.03
2023-01-07T07:35:08.756Z,5.18
2023-01-07T07:37:35.184Z,6.60
2023-01-07T07:40:01.506Z,5.57
2023-01-07T07:42:27.985Z,4.95
2023-01-07T07:44:54.423Z,3.53
2023-01-07T07:47:20.963Z,6.70
2023-01-07T07:49:47.412Z,6.75
2023-01-07T07:52:13.749Z,6.95
2023-01-07T07:54:40.141Z,4.97
2023-01-07T07:57:06.514Z,7.53
2023-01-07T07:59:32.916Z,7.95
2023-01-07T08:01:59.447Z,3.88
2023-01-07T08:04:25.966Z,5.85
2023-01-07T08:06:52.400Z,4.03
2023-01-07T08:09:19.034Z,6.63
2023-01-07T08:11:45.530Z,3.72
2023-01-07T08:14:11.894Z,4.15
2023-01-07T08:16:38.448Z,3.08
2023-01-07T08:19:04.839Z,7.80
2023-01-07T08:21:31.153Z,4.55
2023-01-07T08:23:57.517Z,3.25
2023-01-07T08:26:24.275Z,5.38
2023-01-07T08:28:51.331Z,4.53
2023-01-07T08:31:17.757Z,3.47
2023-01-07T08:33:44.197Z,4.93
2023-01-07T08:36:22.021Z,3.72
2023-01-07T08:38:53.422Z,5.95
2023-01-07T08:41:21.926Z,2.70
2023-01-07T08:43:48.380Z,3.65
2023-01-07T08:46:14.799Z,3.25
2023-01-07T08:48:41.291Z,3.38
2023-01-07T08:51:07.832Z,4.00
2023-01-07T08:53:35.002Z,3.95
2023-01-07T08:56:01.541Z,5.00
2023-01-07T08:58:27.917Z,3.45
2023-01-07T09:00:54.339Z,4.72
2023-01-07T09:03:21.051Z,4.35
2023-01-07T09:05:47.434Z,3.90
2023-01-07T09:08:14.173Z,3.90
2023-01-07T09:10:40.724Z,4.15
2023-01-07T09:13:07.193Z,3.45
2023-01-07T09:15:33.487Z,2.95
2023-01-07T09:17:59.840Z,2.58
2023-01-07T09:20:26.260Z,3.42
2023-01-07T09:22:52.700Z,2.40
2023-01-07T09:25:19.483Z,3.63
2023-01-07T09:27:45.907Z,4.43
2023-01-07T09:30:12.787Z,5.35
2023-01-07T09:32:39.400Z,3.60
2023-01-07T09:35:06.233Z,5.55
2023-01-07T09:37:32.660Z,2.45
2023-01-07T09:39:58.983Z,2.33
2023-01-07T09:42:48.014Z,2.45
2023-01-07T09:45:23.382Z,3.67
2023-01-07T09:47:54.133Z,3.88
2023-01-07T09:50:47.024Z,2.10
2023-01-07T09:53:24.756Z,2.35
2023-01-07T09:56:10.763Z,1.90
2023-01-07T09:58:40.894Z,4.40
2023-01-07T10:01:39.432Z,3.78
2023-01-07T10:04:26.066Z,1.70
2023-01-07T10:07:16.444Z,2.70
2023-01-07T10:10:03.040Z,4.82
2023-01-07T10:12:38.225Z,3.83
2023-01-07T10:15:29.457Z,2.42
2023-01-07T10:18:30.723Z,2.20
2023-01-07T10:21:26.151Z,2.58
2023-01-07T10:24:02.677Z,1.85
2023-01-07T10:26:35.662Z,3.55
2023-01-07T10:29:16.454Z,3.95
2023-01-07T10:31:45.415Z,2.10
2023-01-07T10:34:24.707Z,2.40
2023-01-07T10:37:30.940Z,3.38
2023-01-07T10:40:03.375Z,3.33
2023-01-07T10:42:40.548Z,6.28
2023-01-07T10:45:18.817Z,3.78
2023-01-07T10:48:06.590Z,4.25
2023-01-07T10:50:48.924Z,2.72
2023-01-07T10:53:21.182Z,3.50
2023-01-07T10:55:56.408Z,3.17
2023-01-07T10:58:22.785Z,4.20
2023-01-07T11:00:49.458Z,2.33
2023-01-07T11:03:22.237Z,3.00
2023-01-07T11:06:05.726Z,2.10
2023-01-07T11:08:40.572Z,3.55
2023-01-07T11:11:14.273Z,1.70
2023-01-07T11:13:43.227Z,2.92
2023-01-07T11:16:13.315Z,2.40
2023-01-07T11:18:59.909Z,3.58
2023-01-07T11:21:43.623Z,3.33
2023-01-07T11:24:31.437Z,4.20
2023-01-07T11:27:12.884Z,2.80
2023-01-07T11:29:43.630Z,3.42
2023-01-07T11:32:23.579Z,2.22
2023-01-07T11:35:05.330Z,3.17
2023-01-07T11:37:40.577Z,4.13
2023-01-07T11:40:12.888Z,3.85
2023-01-07T11:42:55.478Z,2.60
2023-01-07T11:45:22.980Z,4.03
2023-01-07T11:48:00.136Z,3.00
2023-01-07T11:50:33.407Z,3.58
2023-01-07T11:53:11.207Z,2.90
2023-01-07T11:55:38.064Z,2.85
2023-01-07T11:58:29.379Z,3.35
2023-01-07T12:01:09.434Z,1.90
2023-01-07T12:03:38.445Z,2.58
2023-01-07T12:06:32.624Z,2.60
2023-01-07T12:09:32.256Z,4.22
2023-01-07T12:12:17.702Z,2.63
2023-01-07T12:14:47.611Z,1.90
2023-01-07T12:17:17.032Z,2.72
2023-01-07T12:19:49.217Z,3.72
2023-01-07T12:22:41.891Z,3.15
2023-01-07T12:25:40.261Z,3.17
2023-01-07T12:28:16.637Z,2.75
2023-01-07T12:31:09.928Z,3.28
2023-01-07T12:33:43.399Z,1.58
2023-01-07T12:36:30.601Z,5.18
2023-01-07T12:39:01.651Z,2.60
2023-01-07T12:41:36.695Z,4.07
2023-01-07T12:44:11.942Z,2.60
2023-01-07T12:47:31.057Z,3.85
2023-01-07T12:50:04.582Z,4.38
2023-01-07T12:52:37.505Z,1.98
2023-01-07T12:55:13.311Z,2.40
2023-01-07T12:57:42.039Z,1.92
2023-01-07T13:00:22.683Z,2.67
2023-01-07T13:03:09.363Z,2.92
2023-01-07T13:05:46.263Z,2.97
2023-01-07T13:08:26.699Z,2.28
2023-01-07T13:10:59.716Z,2.20
2023-01-07T13:13:37.354Z,2.65
2023-01-07T13:16:05.334Z,3.50
2023-01-07T13:18:31.826Z,3.90
2023-01-07T13:21:07.001Z,3.13
2023-01-07T13:23:45.612Z,2.40
2023-01-07T13:26:49.727Z,3.00
2023-01-07T13:29:39.521Z,2.78
2023-01-07T13:32:08.651Z,2.13
2023-01-07T13:34:59.391Z,4.13
2023-01-07T13:37:45.256Z,2.80
2023-01-07T13:40:32.816Z,2.38
2023-01-07T13:43:17.572Z,1.98
2023-01-07T13:45:59.924Z,3.92
2023-01-07T13:48:27.916Z,2.92
2023-01-07T13:51:07.176Z,1.70
2023-01-07T13:53:44.049Z,3.47
2023-01-07T13:56:34.784Z,3.72
2023-01-07T13:59:01.221Z,3.40
2023-01-07T14:01:32.610Z,4.10
2023-01-07T14:04:18.910Z,2.15
2023-01-07T14:06:51.679Z,3.45
2023-01-07T14:09:28.038Z,2.25
2023-01-07T14:12:05.401Z,3.33
2023-01-07T14:14:52.455Z,4.90
2023-01-07T14:17:27.621Z,3.28
2023-01-07T14:20:21.697Z,2.80
2023-01-07T14:23:19.353Z,2.67
2023-01-07T14:26:04.639Z,2.63
2023-01-07T14:28:42.882Z,2.90
2023-01-07T14:31:29.426Z,3.33
2023-01-07T14:34:07.961Z,2.80
2023-01-07T14:37:02.407Z,5.55
2023-01-07T14:39:44.082Z,3.03
2023-01-07T14:42:19.351Z,2.60
2023-01-07T14:44:47.761Z,1.95
2023-01-07T14:47:35.006Z,2.88
2023-01-07T14:50:17.687Z,3.55
2023-01-07T14:53:22.659Z,3.22
2023-01-07T14:56:13.676Z,4.45
2023-01-07T14:59:04.584Z,2.22
2023-01-07T15:01:42.954Z,3.13
2023-01-07T15:04:51.003Z,3.40
2023-01-07T15:07:23.557Z,4.57
2023-01-07T15:09:57.861Z,2.70
2023-01-07T15:12:28.880Z,3.00
2023-01-07T15:15:16.448Z,3.22
2023-01-07T15:17:43.198Z,5.68
2023-01-07T15:20:10.224Z,2.80
2023-01-07T15:23:03.480Z,5.97
2023-01-07T15:25:40.517Z,8.00
2023-01-07T15:28:18.229Z,5.07
2023-01-07T15:31:22.790Z,5.43
2023-01-07T15:33:52.270Z,3.55
2023-01-07T15:36:18.924Z,4.57
2023-01-07T15:38:52.687Z,4.93
2023-01-07T15:41:26.634Z,4.97
2023-01-07T15:43:54.003Z,3.33
2023-01-07T15:46:21.511Z,4.80
2023-01-07T15:49:15.869Z,2.90
2023-01-07T15:51:44.969Z,5.07
2023-01-07T15:54:37.922Z,3.38
2023-01-07T15:57:06.629Z,5.45
2023-01-07T15:59:43.380Z,4.28
2023-01-07T16:02:26.878Z,3.97
2023-01-07T16:04:57.216Z,4.22
2023-01-07T16:07:28.984Z,3.78
2023-01-07T16:09:56.812Z,4.43
2023-01-07T16:12:33.106Z,5.47
2023-01-07T16:14:59.654Z,4.78
2023-01-07T16:17:26.120Z,5.63
2023-01-07T16:20:21.207Z,9.98
2023-01-07T16:22:49.322Z,4.30
2023-01-07T16:25:34.851Z,3.92
2023-01-07T16:28:02.875Z,6.88
2023-01-07T16:30:29.237Z,6.45
2023-01-07T16:32:56.541Z,5.72
2023-01-07T16:35:33.410Z,4.22
2023-01-07T16:38:01.259Z,5.28
2023-01-07T16:40:35.120Z,4.20
2023-01-07T16:43:02.383Z,4.53
2023-01-07T16:45:41.904Z,6.32
2023-01-07T16:48:21.027Z,5.65
2023-01-07T16:50:48.577Z,7.50
2023-01-07T16:53:27.025Z,6.70
2023-01-07T16:56:14.688Z,5.93
2023-01-07T16:58:53.287Z,7.63
2023-01-07T17:01:29.534Z,4.72
2023-01-07T17:04:02.137Z,5.82
2023-01-07T17:06:30.493Z,4.68
2023-01-07T17:09:00.978Z,4.53
2023-01-07T17:11:37.773Z,5.75
2023-01-07T17:14:04.771Z,5.75
2023-01-07T17:16:35.444Z,6.97
2023-01-07T17:19:25.069Z,5.10
2023-01-07T17:21:51.514Z,5.13
2023-01-07T17:24:40.846Z,5.03
2023-01-07T17:27:17.863Z,4.40
2023-01-07T17:29:44.203Z,5.07
2023-01-07T17:32:13.661Z,5.35
2023-01-07T17:34:40.053Z,5.15
2023-01-07T17:37:12.590Z,5.75
2023-01-07T17:39:38.986Z,5.03
2023-01-07T17:42:19.297Z,4.55
2023-01-07T17:44:45.795Z,5.97
2023-01-07T17:47:12.677Z,10.50
2023-01-07T17:49:39.073Z,6.88
2023-01-07T17:52:05.629Z,5.97
2023-01-07T17:54:31.941Z,6.43
2023-01-07T17:56:58.274Z,5.63
2023-01-07T17:59:24.688Z,7.43
2023-01-07T18:01:52.711Z,6.68
2023-01-07T18:04:19.215Z,5.97
2023-01-07T18:06:45.613Z,6.40
2023-01-07T18:09:12.086Z,6.18
2023-01-07T18:11:41.094Z,4.63
2023-01-07T18:14:08.385Z,6.13
2023-01-07T18:16:34.824Z,5.03
2023-01-07T18:19:01.225Z,12.65
2023-01-07T18:21:27.527Z,7.22
2023-01-07T18:23:53.818Z,7.50
2023-01-07T18:26:20.160Z,10.90
2023-01-07T18:28:47.444Z,4.80
2023-01-07T18:31:14.332Z,5.68
2023-01-07T18:33:41.043Z,4.70
2023-01-07T18:36:09.265Z,5.65
2023-01-07T18:38:35.754Z,6.03
2023-01-07T18:41:02.187Z,5.45
2023-01-07T18:43:28.624Z,6.65
2023-01-07T18:45:55.093Z,7.47
2023-01-07T18:48:21.547Z,4.28
2023-01-07T18:50:49.492Z,6.07
2023-01-07T18:53:17.804Z,6.50
2023-01-07T18:55:45.225Z,6.95
2023-01-07T18:58:15.171Z,5.03
2023-01-07T19:00:42.254Z,5.90
2023-01-07T19:03:10.135Z,5.90
2023-01-07T19:05:39.279Z,5.35
2023-01-07T19:08:05.830Z,5.47
2023-01-07T19:10:32.273Z,4.93
2023-01-07T19:12:58.705Z,4.88
2023-01-07T19:15:25.486Z,6.82
2023-01-07T19:17:51.870Z,7.13
2023-01-07T19:20:18.332Z,6.13
2023-01-07T19:22:44.739Z,6.90
2023-01-07T19:25:11.171Z,6.30
2023-01-07T19:27:37.658Z,6.10
2023-01-07T19:30:05.072Z,7.15
2023-01-07T19:32:31.882Z,6.18
2023-01-07T19:34:58.224Z,6.40
2023-01-07T19:37:25.132Z,5.70
2023-01-07T19:39:51.491Z,5.82
2023-01-07T19:42:17.877Z,7.45
2023-01-07T19:44:47.395Z,5.47
2023-01-07T19:47:13.870Z,9.18
2023-01-07T19:49:40.346Z,5.30
2023-01-07T19:52:06.708Z,6.40
2023-01-07T19:54:33.196Z,7.20
2023-01-07T19:56:59.586Z,6.00
2023-01-07T19:59:25.920Z,7.13
2023-01-07T20:01:52.508Z,7.22
2023-01-07T20:04:19.103Z,7.80
2023-01-07T20:06:45.513Z,6.45
2023-01-07T20:09:11.870Z,5.95
2023-01-07T20:11:39.429Z,7.85
2023-01-07T20:14:06.335Z,6.68
2023-01-07T20:16:33.088Z,6.35
2023-01-07T20:18:59.538Z,7.40
2023-01-07T20:21:26.006Z,8.07
2023-01-07T20:23:53.146Z,7.55
2023-01-07T20:26:25.452Z,6.30
2023-01-07T20:28:52.122Z,6.53
2023-01-07T20:31:20.498Z,5.15
2023-01-07T20:33:47.441Z,6.90
2023-01-07T20:36:16.081Z,6.40
2023-01-07T20:38:44.180Z,8.88
2023-01-07T20:41:19.601Z,6.45
2023-01-07T20:43:51.279Z,7.22
2023-01-07T20:46:18.010Z,7.15
2023-01-07T20:48:44.472Z,8.35
2023-01-07T20:51:13.001Z,5.13
2023-01-07T20:53:40.473Z,7.72
2023-01-07T20:56:07.113Z,6.60
2023-01-07T20:58:35.931Z,7.03
2023-01-07T21:01:06.831Z,8.27
2023-01-07T21:03:34.202Z,6.07
2023-01-07T21:06:00.895Z,7.90
2023-01-07T21:08:27.331Z,7.72
2023-01-07T21:10:54.066Z,6.93
2023-01-07T21:13:21.742Z,7.63
2023-01-07T21:15:48.497Z,6.40
2023-01-07T21:18:15.915Z,8.85
2023-01-07T21:20:43.011Z,6.28
2023-01-07T21:23:10.253Z,6.90
2023-01-07T21:25:37.198Z,6.43
2023-01-07T21:28:04.716Z,6.93
2023-01-07T21:30:31.221Z,8.15
2023-01-07T21:32:58.717Z,6.32
2023-01-07T21:35:25.282Z,9.10
2023-01-07T21:37:53.344Z,7.25
2023-01-07T21:40:20.082Z,6.40
2023-01-07T21:42:46.423Z,6.53
2023-01-07T21:45:12.870Z,6.32
2023-01-07T21:47:39.205Z,6.20
2023-01-07T21:50:05.999Z,6.18
2023-01-07T21:52:34.361Z,8.35
2023-01-07T21:55:00.860Z,7.63
2023-01-07T21:57:28.862Z,6.75
2023-01-07T21:59:55.231Z,8.13
2023-01-07T22:02:21.578Z,6.68
2023-01-07T22:04:48.415Z,6.00
2023-01-07T22:07:17.041Z,5.97
2023-01-07T22:09:43.985Z,8.18
2023-01-07T22:12:11.748Z,6.35
2023-01-07T22:14:38.229Z,7.13
2023-01-07T22:17:05.209Z,6.65
2023-01-07T22:19:31.568Z,5.47
2023-01-07T22:21:58.144Z,6.28
2023-01-07T22:24:25.122Z,7.75
2023-01-07T22:26:51.588Z,8.68
2023-01-07T22:29:18.061Z,9.23
2023-01-07T22:31:44.887Z,6.13
2023-01-07T22:34:11.521Z,6.20
2023-01-07T22:36:54.177Z,7.95
2023-01-07T22:39:29.776Z,4.97
2023-01-07T22:42:02.753Z,5.90
2023-01-07T22:44:38.385Z,8.07
2023-01-07T22:47:08.940Z,5.32
2023-01-07T22:49:35.728Z,8.80
2023-01-07T22:52:02.174Z,5.85
2023-01-07T22:54:29.122Z,5.80
2023-01-07T22:56:55.699Z,6.90
2023-01-07T22:59:22.120Z,7.85
2023-01-07T23:01:48.548Z,6.35
2023-01-07T23:04:15.019Z,7.00
2023-01-07T23:06:41.488Z,11.05
2023-01-07T23:09:07.908Z,7.57
2023-01-07T23:11:34.287Z,7.50
2023-01-07T23:14:01.024Z,5.90
2023-01-07T23:16:27.446Z,6.53
2023-01-07T23:18:53.895Z,8.13
2023-01-07T23:21:20.378Z,8.50
2023-01-07T23:23:46.818Z,5.45
2023-01-07T23:26:14.636Z,7.40
2023-01-07T23:28:41.558Z,7.45
2023-01-07T23:31:07.981Z,7.53
2023-01-07T23:33:34.401Z,6.85
2023-01-07T23:36:05.455Z,6.40
2023-01-07T23:38:32.786Z,7.72
2023-01-07T23:41:01.083Z,5.00
2023-01-07T23:43:27.651Z,5.20
2023-01-07T23:45:59.730Z,6.10
2023-01-07T23:48:26.891Z,6.40
2023-01-07T23:50:54.296Z,6.00
2023-01-07T23:53:21.026Z,5.57
2023-01-07T23:55:55.442Z,6.20
2023-01-07T23:58:25.102Z,5.00
